Time;durP1;ratioP1;P1;durP2;ratioP2;P2;SDS_P1;SDS_P2;PMS_P1;PMS_P2;Temp;Humidity;BMP_temperature;BMP_pressure;BME280_temperature;BME280_humidity;BME280_pressure;Samples;Min_cycle;Max_cycle;Signal;HPM_P1;HPM_P2
2023/03/21 00:00:55;;;;;;;11.57;9.00;;;10.70;99.90;;;;;;4937590;29;20426;-83
2023/03/21 00:03:21;;;;;;;14.07;9.37;;;10.60;99.90;;;;;;4936696;29;20894;-80
2023/03/21 00:05:52;;;;;;;11.80;9.37;;;10.70;99.90;;;;;;4936070;29;20468;-82
2023/03/21 00:08:41;;;;;;;11.03;9.03;;;10.70;99.90;;;;;;4937408;29;20627;-82
2023/03/21 00:11:11;;;;;;;11.90;9.87;;;10.70;99.90;;;;;;4939350;29;20432;-82
2023/03/21 00:13:37;;;;;;;14.80;11.90;;;10.60;99.90;;;;;;4934830;29;20846;-80
2023/03/21 00:16:17;;;;;;;14.87;11.20;;;10.60;99.90;;;;;;4936972;29;20435;-81
2023/03/21 00:18:45;;;;;;;17.10;12.40;;;10.60;99.90;;;;;;4951525;28;20208;-81
2023/03/21 00:21:14;;;;;;;15.13;12.13;;;10.70;99.90;;;;;;4952080;29;20436;-81
2023/03/21 00:23:42;;;;;;;15.57;12.10;;;10.60;99.90;;;;;;4937263;29;20423;-82
2023/03/21 00:26:12;;;;;;;19.73;10.53;;;10.50;99.90;;;;;;4951954;28;20427;-82
2023/03/21 00:28:40;;;;;;;16.80;12.50;;;10.50;99.90;;;;;;4935584;29;20570;-82
2023/03/21 00:31:06;;;;;;;21.63;14.50;;;10.40;99.90;;;;;;4926502;29;20921;-82
2023/03/21 00:33:33;;;;;;;18.10;12.63;;;10.40;99.90;;;;;;4943878;29;20788;-81
2023/03/21 00:36:00;;;;;;;18.30;13.90;;;10.40;99.90;;;;;;4936715;29;20434;-81
2023/03/21 00:38:29;;;;;;;18.00;13.07;;;10.20;99.90;;;;;;4936012;29;20621;-83
2023/03/21 00:40:55;;;;;;;17.10;13.40;;;10.30;99.90;;;;;;4936882;29;20414;-82
2023/03/21 00:43:34;;;;;;;17.77;15.50;;;10.30;99.90;;;;;;4935901;28;20857;-83
2023/03/21 00:46:01;;;;;;;22.80;16.40;;;10.30;99.90;;;;;;4951578;28;20426;-81
2023/03/21 00:48:28;;;;;;;20.37;13.87;;;10.30;99.90;;;;;;4936782;29;20519;-79
2023/03/21 00:50:56;;;;;;;21.83;15.50;;;10.30;99.90;;;;;;4936572;29;20551;-80
2023/03/21 00:53:22;;;;;;;20.97;14.97;;;10.40;99.90;;;;;;4936709;29;20781;-82
2023/03/21 00:55:48;;;;;;;22.83;16.40;;;10.30;99.90;;;;;;4951321;28;20433;-82
2023/03/21 00:58:15;;;;;;;18.73;14.93;;;10.30;99.90;;;;;;4936192;29;20495;-82
2023/03/21 01:00:42;;;;;;;24.57;17.47;;;10.30;99.90;;;;;;4935898;29;20435;-82
2023/03/21 01:03:13;;;;;;;21.13;15.03;;;10.10;99.90;;;;;;4951016;28;20430;-81
2023/03/21 01:06:06;;;;;;;22.30;15.30;;;10.20;99.90;;;;;;4936386;29;20424;-81
2023/03/21 01:08:37;;;;;;;18.47;13.80;;;10.20;99.90;;;;;;4935482;29;20481;-80
2023/03/21 01:11:28;;;;;;;21.13;15.23;;;10.20;99.90;;;;;;4951163;28;20426;-83
2023/03/21 01:13:56;;;;;;;19.93;13.77;;;10.20;99.90;;;;;;4947097;28;20973;-81
2023/03/21 01:16:29;;;;;;;26.10;15.80;;;10.30;99.90;;;;;;4936265;29;20515;-83
2023/03/21 01:18:55;;;;;;;22.53;16.33;;;10.40;99.90;;;;;;4949700;28;20840;-81
2023/03/21 01:21:27;;;;;;;23.37;16.83;;;10.40;99.90;;;;;;4934879;29;20513;-81
2023/03/21 01:23:52;;;;;;;20.03;15.70;;;10.40;99.90;;;;;;4935053;29;20441;-81
2023/03/21 01:26:21;;;;;;;21.87;16.10;;;10.30;99.90;;;;;;4950920;28;20424;-83
2023/03/21 01:28:47;;;;;;;22.20;17.60;;;10.20;99.90;;;;;;4935825;29;20183;-82
2023/03/21 01:31:14;;;;;;;20.83;15.03;;;10.30;99.90;;;;;;4950851;28;21023;-83
2023/03/21 01:33:41;;;;;;;23.87;15.53;;;10.30;99.90;;;;;;4936093;29;20512;-83
2023/03/21 01:36:22;;;;;;;27.73;15.60;;;10.30;99.90;;;;;;4936000;29;20752;-83
2023/03/21 01:38:48;;;;;;;22.60;16.17;;;10.40;99.90;;;;;;4948028;28;20573;-82
2023/03/21 01:41:25;;;;;;;24.17;16.73;;;10.40;99.90;;;;;;4936114;29;20415;-82
2023/03/21 01:43:54;;;;;;;22.63;15.37;;;10.30;99.90;;;;;;4934998;29;20429;-84
2023/03/21 01:46:48;;;;;;;25.13;17.60;;;10.20;99.90;;;;;;4936046;29;20505;-83
2023/03/21 01:49:24;;;;;;;23.33;15.80;;;10.30;99.90;;;;;;4934548;29;20942;-82
2023/03/21 01:52:07;;;;;;;25.70;17.20;;;10.30;99.90;;;;;;4935796;29;20425;-81
2023/03/21 01:54:36;;;;;;;24.60;17.00;;;10.40;99.90;;;;;;4934576;29;20442;-84
2023/03/21 01:57:08;;;;;;;21.43;17.77;;;10.40;99.90;;;;;;4935479;29;20614;-84
2023/03/21 01:59:53;;;;;;;24.57;17.97;;;10.40;99.90;;;;;;4949995;28;20490;-84
2023/03/21 02:02:30;;;;;;;24.10;16.30;;;10.40;99.90;;;;;;4935609;29;20481;-83
2023/03/21 02:05:01;;;;;;;21.10;15.50;;;10.50;99.90;;;;;;4950217;28;20426;-84
2023/03/21 02:07:38;;;;;;;22.80;15.67;;;10.50;99.90;;;;;;4934615;29;20473;-80
2023/03/21 02:10:47;;;;;;;22.97;17.23;;;10.60;99.90;;;;;;4935583;29;20916;-84
2023/03/21 02:13:35;;;;;;;23.30;16.57;;;10.50;99.90;;;;;;4934158;28;20430;-84
2023/03/21 02:16:33;;;;;;;21.70;16.33;;;10.40;99.90;;;;;;4935463;29;20441;-82
2023/03/21 02:19:20;;;;;;;23.53;17.13;;;10.40;99.90;;;;;;4934975;28;20469;-82
2023/03/21 02:22:22;;;;;;;25.70;17.87;;;10.40;99.90;;;;;;4935415;29;20516;-83
2023/03/21 02:25:25;;;;;;;22.50;15.17;;;10.40;99.90;;;;;;4935380;29;20416;-82
2023/03/21 02:28:10;;;;;;;21.37;15.10;;;10.40;99.90;;;;;;4934993;29;20414;-81
2023/03/21 02:31:09;;;;;;;26.40;18.10;;;10.50;99.90;;;;;;4935394;29;20423;-80
2023/03/21 02:33:54;;;;;;;23.50;16.37;;;10.40;99.90;;;;;;4934046;29;20438;-80
2023/03/21 02:37:11;;;;;;;23.10;15.23;;;10.40;99.90;;;;;;4950019;28;20792;-82
2023/03/21 02:40:22;;;;;;;21.87;15.07;;;10.40;99.90;;;;;;4904675;29;20536;-82
2023/03/21 02:43:02;;;;;;;23.00;16.77;;;10.50;99.90;;;;;;4940270;29;20434;-82
2023/03/21 02:45:37;;;;;;;22.20;17.50;;;10.30;99.90;;;;;;4934312;29;20431;-82
2023/03/21 02:48:08;;;;;;;27.00;17.70;;;10.30;99.90;;;;;;4934830;29;20810;-82
2023/03/21 02:50:41;;;;;;;20.87;15.40;;;10.40;99.90;;;;;;4935237;29;20415;-83
2023/03/21 02:53:08;;;;;;;27.00;17.77;;;10.30;99.90;;;;;;4949862;29;20480;-82
2023/03/21 02:55:36;;;;;;;21.83;16.60;;;10.30;99.90;;;;;;4950222;28;20421;-83
2023/03/21 02:58:03;;;;;;;24.00;16.27;;;10.40;99.90;;;;;;4934562;28;20486;-83
2023/03/21 03:00:32;;;;;;;24.00;16.83;;;10.40;99.90;;;;;;4935486;29;20501;-82
2023/03/21 03:02:58;;;;;;;25.40;17.70;;;10.40;99.90;;;;;;4934773;29;20422;-83
2023/03/21 03:05:29;;;;;;;24.03;16.33;;;10.50;99.90;;;;;;4933470;29;20429;-83
2023/03/21 03:08:26;;;;;;;23.23;15.53;;;10.50;99.90;;;;;;4933567;29;20413;-82
2023/03/21 03:11:13;;;;;;;23.30;16.60;;;10.50;99.90;;;;;;4950115;28;20845;-82
2023/03/21 03:14:11;;;;;;;21.03;15.30;;;10.50;99.90;;;;;;4935025;29;20990;-82
2023/03/21 03:17:00;;;;;;;27.50;17.67;;;10.60;99.90;;;;;;4935371;29;20505;-83
2023/03/21 03:19:33;;;;;;;24.47;17.27;;;10.50;99.90;;;;;;4935106;29;20558;-82
2023/03/21 03:22:05;;;;;;;20.70;15.80;;;10.60;99.90;;;;;;4935283;29;20857;-82
2023/03/21 03:24:38;;;;;;;23.60;16.70;;;10.70;99.90;;;;;;4953088;28;20433;-81
2023/03/21 03:27:11;;;;;;;20.97;15.73;;;10.70;99.90;;;;;;4953146;28;20496;-81
2023/03/21 03:29:41;;;;;;;21.60;16.70;;;10.80;99.90;;;;;;4953450;28;20530;-81
2023/03/21 03:32:27;;;;;;;21.30;16.43;;;10.70;99.90;;;;;;4953359;29;20438;-82
2023/03/21 03:34:57;;;;;;;24.70;17.53;;;10.60;99.90;;;;;;4953610;28;20947;-82
2023/03/21 03:37:27;;;;;;;26.33;17.97;;;10.60;99.90;;;;;;4953138;28;20426;-82
2023/03/21 03:40:28;;;;;;;26.33;17.10;;;10.60;99.90;;;;;;4953178;28;20478;-82
2023/03/21 03:43:03;;;;;;;20.40;15.60;;;10.50;99.90;;;;;;4938173;29;20421;-85
2023/03/21 03:46:05;;;;;;;27.43;17.90;;;10.50;99.90;;;;;;4938207;29;20778;-85
2023/03/21 03:49:23;;;;;;;25.63;17.60;;;10.50;99.90;;;;;;4938310;29;21009;-85
2023/03/21 03:52:20;;;;;;;24.77;16.70;;;10.40;99.90;;;;;;4938250;29;20500;-83
2023/03/21 03:54:55;;;;;;;24.33;16.83;;;10.40;99.90;;;;;;4953045;28;20438;-84
2023/03/21 03:57:33;;;;;;;25.27;18.10;;;10.40;99.90;;;;;;4951157;28;20433;-84
2023/03/21 03:59:59;;;;;;;21.63;16.07;;;10.30;99.90;;;;;;4936589;29;20476;-81
2023/03/21 04:02:31;;;;;;;25.63;19.33;;;10.30;99.90;;;;;;4952887;28;20518;-84
2023/03/21 04:05:11;;;;;;;26.20;15.90;;;10.40;99.90;;;;;;4936818;29;20447;-85
2023/03/21 04:07:58;;;;;;;24.60;17.00;;;10.40;99.90;;;;;;4937993;29;20416;-82
2023/03/21 04:10:26;;;;;;;22.23;15.87;;;10.30;99.90;;;;;;4952613;28;20433;-82
2023/03/21 04:13:05;;;;;;;26.57;18.80;;;10.40;99.90;;;;;;4937599;29;20741;-82
2023/03/21 04:15:32;;;;;;;25.20;17.37;;;10.40;99.90;;;;;;4952643;28;20427;-82
2023/03/21 04:18:18;;;;;;;23.37;16.20;;;10.40;99.90;;;;;;4937719;29;20420;-82
2023/03/21 04:20:44;;;;;;;23.87;17.70;;;10.40;99.90;;;;;;4937502;29;20527;-82
2023/03/21 04:23:25;;;;;;;25.17;17.47;;;10.30;99.90;;;;;;4937670;29;20478;-82
2023/03/21 04:25:51;;;;;;;24.77;16.17;;;10.40;99.90;;;;;;4937737;29;20449;-82
2023/03/21 04:28:17;;;;;;;22.40;15.83;;;10.40;99.90;;;;;;4937358;29;20851;-82
2023/03/21 04:30:44;;;;;;;22.40;17.20;;;10.50;99.90;;;;;;4937629;29;20176;-82
2023/03/21 04:33:13;;;;;;;24.77;16.07;;;10.50;99.90;;;;;;4937457;29;20415;-83
2023/03/21 04:35:44;;;;;;;22.43;18.03;;;10.60;99.90;;;;;;4936538;29;20407;-82
2023/03/21 04:38:16;;;;;;;22.53;17.60;;;10.60;99.90;;;;;;4937409;29;20560;-85
2023/03/21 04:40:45;;;;;;;22.17;16.53;;;10.60;99.90;;;;;;4952173;28;20453;-84
2023/03/21 04:43:24;;;;;;;26.20;19.83;;;10.70;99.90;;;;;;4951537;28;20738;-85
2023/03/21 04:45:54;;;;;;;22.27;18.30;;;10.60;99.90;;;;;;4937344;29;20782;-84
2023/03/21 04:48:31;;;;;;;28.10;19.53;;;10.50;99.90;;;;;;4937218;29;20961;-82
2023/03/21 04:50:57;;;;;;;26.97;17.17;;;10.40;99.90;;;;;;4951970;29;20798;-83
2023/03/21 04:53:22;;;;;;;30.20;20.80;;;10.40;99.90;;;;;;4951839;28;20430;-83
2023/03/21 04:55:48;;;;;;;29.47;20.10;;;10.30;99.90;;;;;;4951916;28;20209;-83
2023/03/21 04:58:19;;;;;;;27.40;18.40;;;10.20;99.90;;;;;;4951419;28;20674;-83
2023/03/21 05:01:01;;;;;;;28.73;18.83;;;10.20;99.90;;;;;;4951771;28;20209;-83
2023/03/21 05:03:49;;;;;;;26.63;19.10;;;10.20;99.90;;;;;;4937288;29;20908;-82
2023/03/21 05:06:28;;;;;;;31.77;21.23;;;10.20;99.90;;;;;;4939251;29;20506;-82
2023/03/21 05:09:04;;;;;;;27.60;20.03;;;10.20;99.90;;;;;;4936943;29;20407;-83
2023/03/21 05:11:56;;;;;;;27.83;18.27;;;10.10;99.90;;;;;;4936636;29;20428;-84
2023/03/21 05:14:43;;;;;;;26.20;18.40;;;10.10;99.90;;;;;;4936812;29;20412;-83
2023/03/21 05:17:09;;;;;;;27.63;19.40;;;10.10;99.90;;;;;;4951408;28;20429;-83
2023/03/21 05:20:10;;;;;;;28.27;19.60;;;10.10;99.90;;;;;;4936413;29;20830;-84
2023/03/21 05:22:39;;;;;;;28.27;18.67;;;10.00;99.90;;;;;;4936746;29;20925;-84
2023/03/21 05:25:58;;;;;;;35.20;20.80;;;10.00;99.90;;;;;;4936558;29;20782;-85
2023/03/21 05:28:30;;;;;;;31.43;20.33;;;10.00;99.90;;;;;;4936187;29;20428;-84
2023/03/21 05:30:59;;;;;;;31.87;20.77;;;10.00;99.90;;;;;;4936499;29;20422;-83
2023/03/21 05:33:24;;;;;;;27.73;18.43;;;10.00;99.90;;;;;;4935095;29;20436;-84
2023/03/21 05:35:53;;;;;;;25.50;19.50;;;10.00;99.90;;;;;;4936362;29;20829;-84
2023/03/21 05:38:18;;;;;;;28.80;20.43;;;10.00;99.90;;;;;;4936303;29;20472;-85
2023/03/21 05:40:48;;;;;;;28.23;20.70;;;10.10;99.90;;;;;;4936424;29;20176;-86
2023/03/21 05:43:13;;;;;;;30.23;20.17;;;10.00;99.90;;;;;;4935974;29;20185;-85
2023/03/21 05:45:39;;;;;;;31.23;22.00;;;9.90;99.90;;;;;;4936001;29;20425;-85
2023/03/21 05:48:05;;;;;;;27.40;19.43;;;9.90;99.90;;;;;;4936103;29;20216;-84
2023/03/21 05:50:30;;;;;;;29.97;20.00;;;9.90;99.90;;;;;;4936232;29;20175;-87
2023/03/21 05:52:56;;;;;;;28.50;21.20;;;10.00;99.90;;;;;;4936147;29;20923;-86
2023/03/21 05:55:21;;;;;;;28.73;19.33;;;9.90;99.90;;;;;;4936122;29;20172;-86
2023/03/21 05:57:47;;;;;;;31.50;20.07;;;9.90;99.90;;;;;;4935830;29;20233;-84
2023/03/21 06:00:13;;;;;;;25.53;19.03;;;9.90;99.90;;;;;;4936028;29;20680;-85
2023/03/21 06:02:39;;;;;;;28.10;19.33;;;9.80;99.90;;;;;;4935996;29;20181;-85
2023/03/21 06:05:29;;;;;;;30.67;20.50;;;9.80;99.90;;;;;;4935941;29;20424;-86
2023/03/21 06:07:55;;;;;;;26.03;17.90;;;9.70;99.90;;;;;;4935853;29;20184;-83
2023/03/21 06:10:20;;;;;;;25.40;18.33;;;9.80;99.90;;;;;;4950749;28;20434;-80
2023/03/21 06:12:49;;;;;;;28.50;20.10;;;9.70;99.90;;;;;;4935673;29;20261;-79
2023/03/21 06:15:25;;;;;;;30.87;21.03;;;9.80;99.90;;;;;;4935955;29;20885;-83
2023/03/21 06:18:10;;;;;;;26.10;19.20;;;9.80;99.90;;;;;;4935885;29;20501;-83
2023/03/21 06:20:35;;;;;;;32.43;21.37;;;9.90;99.90;;;;;;4935660;29;20872;-82
2023/03/21 06:23:03;;;;;;;26.37;18.90;;;9.80;99.90;;;;;;4935790;29;20561;-82
2023/03/21 06:25:49;;;;;;;28.33;19.70;;;9.90;99.90;;;;;;4935803;29;20180;-82
2023/03/21 06:28:14;;;;;;;29.33;20.60;;;9.80;99.90;;;;;;4935209;29;20419;-82
2023/03/21 06:30:46;;;;;;;31.97;21.40;;;9.80;99.90;;;;;;4950416;28;20423;-82
2023/03/21 06:33:14;;;;;;;31.53;21.30;;;9.90;99.90;;;;;;4935709;29;20196;-82
2023/03/21 06:36:27;;;;;;;32.00;21.97;;;9.80;99.90;;;;;;4935595;29;20417;-83
2023/03/21 06:38:52;;;;;;;32.07;20.70;;;9.90;99.90;;;;;;4947070;28;20859;-82
2023/03/21 06:41:27;;;;;;;31.80;22.43;;;9.90;99.90;;;;;;4935233;29;20425;-83
2023/03/21 06:43:53;;;;;;;35.33;21.30;;;9.90;99.90;;;;;;4935518;29;20209;-82
2023/03/21 06:46:25;;;;;;;32.53;22.60;;;10.00;99.90;;;;;;4935499;29;20444;-82
2023/03/21 06:48:52;;;;;;;27.90;19.83;;;10.00;99.90;;;;;;4935407;29;20192;-82
2023/03/21 06:51:21;;;;;;;27.87;21.17;;;10.00;99.90;;;;;;4935697;28;20429;-83
2023/03/21 06:53:49;;;;;;;27.80;21.33;;;10.00;99.90;;;;;;4935354;29;20816;-83
2023/03/21 06:56:15;;;;;;;29.30;20.73;;;10.00;99.90;;;;;;4935164;29;20481;-85
2023/03/21 06:58:42;;;;;;;31.80;21.10;;;10.00;99.90;;;;;;4938052;29;20465;-86
2023/03/21 07:01:08;;;;;;;36.90;22.07;;;10.00;99.90;;;;;;4953881;28;20860;-86
2023/03/21 07:03:33;;;;;;;34.50;22.60;;;10.00;99.90;;;;;;4939113;29;20436;-86
2023/03/21 07:06:19;;;;;;;31.40;20.90;;;9.90;99.90;;;;;;4939197;29;20410;-85
2023/03/21 07:09:28;;;;;;;30.60;21.60;;;9.90;99.90;;;;;;4939310;29;20176;-83
2023/03/21 07:11:56;;;;;;;30.13;20.13;;;9.80;99.90;;;;;;4936946;29;20419;-84
2023/03/21 07:14:30;;;;;;;32.57;21.23;;;9.80;99.90;;;;;;4953684;28;20424;-82
2023/03/21 07:16:57;;;;;;;34.13;23.60;;;9.80;99.90;;;;;;4938804;29;20424;-84
2023/03/21 07:19:22;;;;;;;32.33;22.90;;;9.90;99.90;;;;;;4938724;29;20420;-84
2023/03/21 07:21:54;;;;;;;33.20;22.57;;;9.90;99.90;;;;;;4938811;29;20971;-80
2023/03/21 07:24:28;;;;;;;34.00;22.20;;;10.00;99.90;;;;;;4938725;29;20639;-84
2023/03/21 07:26:56;;;;;;;36.70;22.47;;;10.10;99.90;;;;;;4936641;29;20512;-82
2023/03/21 07:29:35;;;;;;;35.67;23.20;;;10.20;99.90;;;;;;4938582;29;20568;-83
2023/03/21 07:32:01;;;;;;;37.33;22.93;;;10.20;99.90;;;;;;4937419;29;20428;-85
2023/03/21 07:34:30;;;;;;;32.10;21.33;;;10.30;99.90;;;;;;4938605;29;20461;-82
2023/03/21 07:36:57;;;;;;;30.83;21.13;;;10.20;99.90;;;;;;4938525;29;20174;-85
2023/03/21 07:39:24;;;;;;;34.50;23.47;;;10.30;99.90;;;;;;4938493;29;20424;-83
2023/03/21 07:42:11;;;;;;;33.37;23.07;;;10.30;99.90;;;;;;4938195;29;20810;-84
2023/03/21 07:44:57;;;;;;;28.10;19.60;;;10.40;99.90;;;;;;4938725;29;20416;-81
2023/03/21 07:47:25;;;;;;;31.30;22.30;;;10.40;99.90;;;;;;4938303;29;20419;-84
2023/03/21 07:49:51;;;;;;;33.10;21.57;;;10.50;99.90;;;;;;4938363;29;20561;-84
2023/03/21 07:52:27;;;;;;;33.30;23.30;;;10.40;99.90;;;;;;4937609;29;20597;-82
2023/03/21 07:54:58;;;;;;;30.50;21.70;;;10.40;99.90;;;;;;4938528;29;20173;-84
2023/03/21 07:57:24;;;;;;;32.63;20.83;;;10.40;99.90;;;;;;4936491;29;20926;-81
2023/03/21 07:59:51;;;;;;;29.03;19.77;;;10.50;99.90;;;;;;4955725;29;20420;-84
2023/03/21 08:02:19;;;;;;;35.47;23.00;;;10.50;99.90;;;;;;4953209;29;20560;-83
2023/03/21 08:04:45;;;;;;;35.03;23.67;;;10.40;99.90;;;;;;4937075;29;20209;-83
2023/03/21 08:07:31;;;;;;;37.43;24.63;;;10.50;99.90;;;;;;4935175;29;20426;-84
2023/03/21 08:10:03;;;;;;;32.17;22.90;;;10.50;99.90;;;;;;4952462;28;20465;-82
2023/03/21 08:12:53;;;;;;;39.93;23.67;;;10.60;99.90;;;;;;4937189;29;20438;-84
2023/03/21 08:15:41;;;;;;;34.93;21.77;;;10.60;99.90;;;;;;4936622;29;20421;-83
2023/03/21 08:18:10;;;;;;;30.20;22.67;;;10.70;99.90;;;;;;4940237;29;20548;-84
2023/03/21 08:20:35;;;;;;;26.67;20.13;;;10.70;99.90;;;;;;4937499;29;20481;-80
2023/03/21 08:23:03;;;;;;;29.50;21.77;;;10.70;99.90;;;;;;4937598;29;20834;-79
2023/03/21 08:25:32;;;;;;;29.80;20.40;;;10.70;99.90;;;;;;4934229;29;20190;-83
2023/03/21 08:28:01;;;;;;;27.57;21.23;;;10.70;99.90;;;;;;4937318;29;20447;-83
2023/03/21 08:30:30;;;;;;;28.13;21.80;;;10.70;99.90;;;;;;4952332;29;20793;-83
2023/03/21 08:33:03;;;;;;;33.50;21.70;;;10.70;99.90;;;;;;4937636;29;20771;-83
2023/03/21 08:35:30;;;;;;;33.57;23.40;;;10.80;99.90;;;;;;4937432;29;20418;-83
2023/03/21 08:38:01;;;;;;;33.97;24.63;;;10.90;99.90;;;;;;4937482;29;20834;-81
2023/03/21 08:40:30;;;;;;;30.10;19.80;;;10.90;99.90;;;;;;4937415;29;20790;-81
2023/03/21 08:42:55;;;;;;;29.67;21.30;;;11.00;99.90;;;;;;4935701;29;20442;-81
2023/03/21 08:45:35;;;;;;;28.63;20.27;;;10.90;99.90;;;;;;4936030;29;20437;-80
2023/03/21 08:48:01;;;;;;;28.27;21.80;;;10.80;99.90;;;;;;4937287;29;20177;-80
2023/03/21 08:50:30;;;;;;;27.93;20.50;;;10.90;99.90;;;;;;4935980;29;20939;-84
2023/03/21 08:53:00;;;;;;;30.60;21.00;;;10.90;99.90;;;;;;4937196;29;20218;-82
2023/03/21 08:55:27;;;;;;;35.73;21.90;;;10.90;99.90;;;;;;4935808;29;20508;-81
2023/03/21 08:57:57;;;;;;;28.73;18.93;;;11.00;99.90;;;;;;4949125;29;20839;-85
2023/03/21 09:00:29;;;;;;;29.63;20.17;;;11.00;99.90;;;;;;4950613;28;20454;-85
2023/03/21 09:02:56;;;;;;;25.33;19.40;;;11.10;99.90;;;;;;4935765;29;20431;-84
2023/03/21 09:05:27;;;;;;;27.20;18.77;;;11.00;99.90;;;;;;4937060;29;20423;-80
2023/03/21 09:07:53;;;;;;;29.30;21.43;;;11.00;99.90;;;;;;4935666;29;20437;-85
2023/03/21 09:10:24;;;;;;;31.20;20.70;;;11.00;99.90;;;;;;4950928;28;20529;-82
2023/03/21 09:12:51;;;;;;;25.70;17.93;;;11.00;99.90;;;;;;4936877;29;20425;-85
2023/03/21 09:15:22;;;;;;;26.20;18.57;;;11.00;99.90;;;;;;4950854;28;20573;-83
2023/03/21 09:17:51;;;;;;;23.20;17.00;;;11.10;99.90;;;;;;4935119;29;20973;-84
2023/03/21 09:20:29;;;;;;;22.70;18.90;;;11.10;99.90;;;;;;4935417;29;20454;-84
2023/03/21 09:22:58;;;;;;;22.70;17.40;;;11.00;99.90;;;;;;4936543;29;20441;-83
2023/03/21 09:25:30;;;;;;;27.73;18.00;;;11.00;99.90;;;;;;4936328;29;20429;-87
2023/03/21 09:28:05;;;;;;;28.83;18.80;;;11.20;99.90;;;;;;4908916;28;20957;-81
2023/03/21 09:30:43;;;;;;;26.03;17.03;;;11.20;99.90;;;;;;4936328;29;20438;-84
2023/03/21 09:33:24;;;;;;;22.47;18.20;;;11.30;99.90;;;;;;4936361;29;20423;-83
2023/03/21 09:35:59;;;;;;;23.23;16.27;;;11.30;99.90;;;;;;4935813;29;20421;-84
2023/03/21 09:38:35;;;;;;;22.97;16.43;;;11.40;99.90;;;;;;4936245;29;20426;-84
2023/03/21 09:41:54;;;;;;;25.77;17.70;;;11.40;99.90;;;;;;4935858;29;20453;-84
2023/03/21 09:44:46;;;;;;;32.13;18.63;;;11.40;99.90;;;;;;4936255;29;20398;-83
2023/03/21 09:47:33;;;;;;;26.67;18.90;;;11.50;99.90;;;;;;4936364;29;20422;-84
2023/03/21 09:50:07;;;;;;;26.97;18.37;;;11.60;99.90;;;;;;4936243;29;20913;-79
2023/03/21 09:52:42;;;;;;;24.87;17.20;;;11.60;99.90;;;;;;4936036;29;20423;-80
2023/03/21 09:55:25;;;;;;;33.53;19.60;;;11.70;99.90;;;;;;4935482;29;20468;-80
2023/03/21 09:58:05;;;;;;;27.63;17.77;;;11.80;99.90;;;;;;4936051;29;20429;-80
2023/03/21 10:00:38;;;;;;;24.73;16.47;;;11.80;99.90;;;;;;4936090;29;20413;-79
2023/03/21 10:03:22;;;;;;;26.13;16.03;;;11.80;99.90;;;;;;4936030;29;20772;-84
2023/03/21 10:05:57;;;;;;;28.07;18.60;;;11.80;99.90;;;;;;4936054;28;20447;-83
2023/03/21 10:08:40;;;;;;;21.83;14.27;;;11.70;99.90;;;;;;4935109;29;20463;-84
2023/03/21 10:11:49;;;;;;;28.17;17.93;;;11.70;99.90;;;;;;4950189;28;20471;-81
2023/03/21 10:14:28;;;;;;;27.73;17.97;;;11.60;99.90;;;;;;4924723;29;20466;-82
2023/03/21 10:17:20;;;;;;;24.50;16.60;;;11.80;99.90;;;;;;4934464;29;20423;-84
2023/03/21 10:19:54;;;;;;;28.37;16.30;;;11.70;99.90;;;;;;4933795;29;20557;-83
2023/03/21 10:22:20;;;;;;;21.40;15.60;;;11.80;99.90;;;;;;4935300;29;20557;-84
2023/03/21 10:24:46;;;;;;;23.53;15.13;;;11.80;99.90;;;;;;4934036;29;20998;-84
2023/03/21 10:27:13;;;;;;;29.40;18.23;;;11.80;99.90;;;;;;4894671;28;20713;-81
2023/03/21 10:29:42;;;;;;;23.37;17.30;;;11.70;99.90;;;;;;4934718;29;20264;-81
2023/03/21 10:32:13;;;;;;;24.70;15.67;;;11.70;99.90;;;;;;4933867;29;20939;-84
2023/03/21 10:34:44;;;;;;;26.77;15.83;;;11.80;99.90;;;;;;4938869;29;20959;-84
2023/03/21 10:37:13;;;;;;;22.07;15.23;;;11.90;99.90;;;;;;4939460;29;20415;-84
2023/03/21 10:39:47;;;;;;;23.77;15.73;;;11.90;99.90;;;;;;4938835;29;20472;-84
2023/03/21 10:42:29;;;;;;;26.97;15.73;;;11.90;99.90;;;;;;4936084;29;20954;-84
2023/03/21 10:44:59;;;;;;;27.33;16.97;;;11.80;99.90;;;;;;4953716;28;20442;-84
2023/03/21 10:47:32;;;;;;;25.53;16.70;;;11.80;99.90;;;;;;4938045;28;20849;-81
2023/03/21 10:50:05;;;;;;;23.47;15.87;;;11.80;99.90;;;;;;4939091;29;20878;-80
2023/03/21 10:52:32;;;;;;;24.47;15.93;;;11.70;99.90;;;;;;4938952;29;20422;-80
2023/03/21 10:55:34;;;;;;;23.80;15.40;;;11.70;99.90;;;;;;4938195;28;20435;-78
2023/03/21 10:58:17;;;;;;;25.50;14.90;;;11.80;99.90;;;;;;4919868;29;20870;-79
2023/03/21 11:00:44;;;;;;;25.53;15.50;;;11.60;99.90;;;;;;4934009;29;20434;-78
2023/03/21 11:03:28;;;;;;;21.23;15.60;;;11.70;99.90;;;;;;4919802;29;20427;-78
2023/03/21 11:06:06;;;;;;;24.63;16.77;;;11.50;99.90;;;;;;4919721;29;20990;-79
2023/03/21 11:08:42;;;;;;;25.57;16.07;;;11.40;99.90;;;;;;4919614;29;20541;-80
2023/03/21 11:11:11;;;;;;;21.03;15.87;;;11.50;99.90;;;;;;4919153;29;20428;-80
2023/03/21 11:13:42;;;;;;;24.53;16.93;;;11.60;99.90;;;;;;4952257;28;20434;-82
2023/03/21 11:16:22;;;;;;;25.33;16.80;;;11.60;99.90;;;;;;4937393;29;21078;-83
2023/03/21 11:19:14;;;;;;;21.97;15.53;;;11.60;99.90;;;;;;4938579;29;20536;-82
2023/03/21 11:21:41;;;;;;;20.57;16.30;;;11.60;99.90;;;;;;4935791;29;20486;-80
2023/03/21 11:24:14;;;;;;;23.60;16.23;;;11.60;99.90;;;;;;4937577;29;20430;-79
2023/03/21 11:26:43;;;;;;;22.57;16.37;;;11.60;99.90;;;;;;4938267;29;20455;-80
2023/03/21 11:29:29;;;;;;;23.23;14.70;;;11.70;99.90;;;;;;4938287;29;20478;-80
2023/03/21 11:32:33;;;;;;;22.90;15.10;;;11.60;99.90;;;;;;4952739;28;20939;-81
2023/03/21 11:35:01;;;;;;;25.43;17.03;;;11.60;99.90;;;;;;4937487;28;20459;-82
2023/03/21 11:37:37;;;;;;;22.20;16.40;;;11.50;99.90;;;;;;4938148;28;20458;-78
2023/03/21 11:40:22;;;;;;;27.03;16.50;;;11.70;99.90;;;;;;4938217;29;20927;-80
2023/03/21 11:42:50;;;;;;;24.50;17.13;;;11.70;99.90;;;;;;4937959;29;20412;-83
2023/03/21 11:45:20;;;;;;;23.63;15.80;;;11.80;99.90;;;;;;4937816;29;20418;-79
2023/03/21 11:47:49;;;;;;;26.53;16.57;;;11.80;99.90;;;;;;4937056;29;20787;-83
2023/03/21 11:50:32;;;;;;;30.00;17.70;;;11.90;99.90;;;;;;4937802;29;20467;-84
2023/03/21 11:53:35;;;;;;;25.40;16.83;;;11.90;99.90;;;;;;4937088;29;20439;-80
2023/03/21 11:56:21;;;;;;;26.80;15.73;;;12.00;99.90;;;;;;4952186;29;20436;-80
2023/03/21 11:59:14;;;;;;;26.90;15.60;;;12.10;99.90;;;;;;4934956;29;20445;-78
2023/03/21 12:02:10;;;;;;;26.03;17.40;;;12.20;99.90;;;;;;4950429;28;20442;-79
2023/03/21 12:04:58;;;;;;;22.67;14.63;;;12.10;99.90;;;;;;4932144;29;20429;-79
2023/03/21 12:07:40;;;;;;;23.07;14.70;;;12.20;99.90;;;;;;4936341;29;20959;-79
2023/03/21 12:10:32;;;;;;;20.80;15.07;;;12.20;99.90;;;;;;4951932;29;21003;-78
2023/03/21 12:13:23;;;;;;;19.47;13.30;;;12.20;99.90;;;;;;4947724;28;20443;-78
2023/03/21 12:16:27;;;;;;;22.17;14.30;;;12.20;99.90;;;;;;4952340;28;20438;-78
2023/03/21 12:19:18;;;;;;;22.33;14.00;;;12.10;99.90;;;;;;4946954;28;20784;-81
2023/03/21 12:22:00;;;;;;;21.83;14.40;;;12.20;99.90;;;;;;4950988;28;20488;-79
2023/03/21 12:24:44;;;;;;;19.97;14.30;;;12.30;99.90;;;;;;4951716;28;20470;-78
2023/03/21 12:27:37;;;;;;;22.40;13.77;;;12.40;99.90;;;;;;4937119;29;20818;-78
2023/03/21 12:30:22;;;;;;;16.47;12.00;;;12.40;99.90;;;;;;4937341;29;20482;-78
2023/03/21 12:33:07;;;;;;;19.03;12.13;;;12.30;99.90;;;;;;4937242;29;20478;-79
2023/03/21 12:35:53;;;;;;;20.83;13.53;;;12.30;99.90;;;;;;4952029;28;20421;-79
2023/03/21 12:38:38;;;;;;;18.70;12.47;;;12.10;99.90;;;;;;4951567;28;20516;-78
2023/03/21 12:41:33;;;;;;;15.87;11.57;;;12.10;99.90;;;;;;4936463;29;20428;-84
2023/03/21 12:44:15;;;;;;;13.50;12.00;;;12.20;99.90;;;;;;4937258;29;20838;-83
2023/03/21 12:47:10;;;;;;;15.87;11.97;;;12.20;99.90;;;;;;4934906;29;20465;-80
2023/03/21 12:49:49;;;;;;;13.67;10.13;;;12.20;99.90;;;;;;4936999;29;20477;-79
2023/03/21 12:52:18;;;;;;;12.70;8.80;;;12.10;99.90;;;;;;4935789;29;20482;-80
2023/03/21 12:54:51;;;;;;;12.50;9.90;;;12.00;99.90;;;;;;4936308;29;20418;-78
2023/03/21 12:57:16;;;;;;;11.40;8.87;;;12.10;99.90;;;;;;4936292;29;20437;-79
2023/03/21 13:00:12;;;;;;;14.27;10.40;;;12.10;99.90;;;;;;4951507;28;20438;-80
2023/03/21 13:02:46;;;;;;;13.40;8.90;;;12.10;99.90;;;;;;4936810;29;20232;-81
2023/03/21 13:05:19;;;;;;;17.53;9.63;;;12.10;99.90;;;;;;4936765;29;20446;-79
2023/03/21 13:07:50;;;;;;;12.00;9.60;;;12.00;99.90;;;;;;4935568;29;20939;-80
2023/03/21 13:10:21;;;;;;;12.47;9.00;;;12.10;99.90;;;;;;4936035;29;20489;-80
2023/03/21 13:13:16;;;;;;;11.00;7.43;;;12.00;99.90;;;;;;4936617;29;20808;-79